sensor_id;sensor_type;location;lat;lon;timestamp;P1;durP1;ratioP1;P2;durP2;ratioP2
8568;SDS011;4322;51.104;-4.162;2023-01-31T00:01:03;0.90;;;0.90;;
8568;SDS011;4322;51.104;-4.162;2023-01-31T00:03:31;0.90;;;0.90;;
8568;SDS011;4322;51.104;-4.162;2023-01-31T00:06:09;0.90;;;0.90;;
8568;SDS011;4322;51.104;-4.162;2023-01-31T00:08:37;0.80;;;0.80;;
8568;SDS011;4322;51.104;-4.162;2023-01-31T00:11:05;0.90;;;0.90;;
8568;SDS011;4322;51.104;-4.162;2023-01-31T00:13:32;0.80;;;0.80;;
8568;SDS011;4322;51.104;-4.162;2023-01-31T00:16:00;0.80;;;0.80;;
8568;SDS011;4322;51.104;-4.162;2023-01-31T00:18:28;0.80;;;0.80;;
8568;SDS011;4322;51.104;-4.162;2023-01-31T00:20:56;0.80;;;0.80;;
8568;SDS011;4322;51.104;-4.162;2023-01-31T00:23:26;0.73;;;0.73;;
8568;SDS011;4322;51.104;-4.162;2023-01-31T00:25:54;0.90;;;0.90;;
8568;SDS011;4322;51.104;-4.162;2023-01-31T00:28:22;0.90;;;0.90;;
8568;SDS011;4322;51.104;-4.162;2023-01-31T00:30:49;0.70;;;0.70;;
8568;SDS011;4322;51.104;-4.162;2023-01-31T00:33:17;0.80;;;0.80;;
8568;SDS011;4322;51.104;-4.162;2023-01-31T00:35:45;0.80;;;0.80;;
8568;SDS011;4322;51.104;-4.162;2023-01-31T00:38:13;0.70;;;0.70;;
8568;SDS011;4322;51.104;-4.162;2023-01-31T00:40:49;0.67;;;0.67;;
8568;SDS011;4322;51.104;-4.162;2023-01-31T00:43:17;0.63;;;0.63;;
8568;SDS011;4322;51.104;-4.162;2023-01-31T00:45:45;0.70;;;0.70;;
8568;SDS011;4322;51.104;-4.162;2023-01-31T00:48:13;0.70;;;0.70;;
8568;SDS011;4322;51.104;-4.162;2023-01-31T00:50:40;0.80;;;0.80;;
8568;SDS011;4322;51.104;-4.162;2023-01-31T00:53:08;0.80;;;0.80;;
8568;SDS011;4322;51.104;-4.162;2023-01-31T00:55:36;0.80;;;0.80;;
8568;SDS011;4322;51.104;-4.162;2023-01-31T00:58:05;0.80;;;0.80;;
8568;SDS011;4322;51.104;-4.162;2023-01-31T01:00:33;0.77;;;0.77;;
8568;SDS011;4322;51.104;-4.162;2023-01-31T01:03:01;0.70;;;0.70;;
8568;SDS011;4322;51.104;-4.162;2023-01-31T01:05:28;0.80;;;0.80;;
8568;SDS011;4322;51.104;-4.162;2023-01-31T01:07:56;0.80;;;0.80;;
8568;SDS011;4322;51.104;-4.162;2023-01-31T01:10:24;0.80;;;0.80;;
8568;SDS011;4322;51.104;-4.162;2023-01-31T01:12:52;0.80;;;0.80;;
8568;SDS011;4322;51.104;-4.162;2023-01-31T01:15:21;0.70;;;0.70;;
8568;SDS011;4322;51.104;-4.162;2023-01-31T01:17:49;0.80;;;0.80;;
8568;SDS011;4322;51.104;-4.162;2023-01-31T01:20:17;0.70;;;0.70;;
8568;SDS011;4322;51.104;-4.162;2023-01-31T01:22:45;0.80;;;0.80;;
8568;SDS011;4322;51.104;-4.162;2023-01-31T01:25:12;0.80;;;0.80;;
8568;SDS011;4322;51.104;-4.162;2023-01-31T01:27:40;0.70;;;0.70;;
8568;SDS011;4322;51.104;-4.162;2023-01-31T01:30:09;0.80;;;0.80;;
8568;SDS011;4322;51.104;-4.162;2023-01-31T01:32:38;0.80;;;0.80;;
8568;SDS011;4322;51.104;-4.162;2023-01-31T01:35:06;0.70;;;0.70;;
8568;SDS011;4322;51.104;-4.162;2023-01-31T01:37:35;0.80;;;0.80;;
8568;SDS011;4322;51.104;-4.162;2023-01-31T01:40:03;0.60;;;0.60;;
8568;SDS011;4322;51.104;-4.162;2023-01-31T01:42:32;0.70;;;0.70;;
8568;SDS011;4322;51.104;-4.162;2023-01-31T01:45:01;0.70;;;0.70;;
8568;SDS011;4322;51.104;-4.162;2023-01-31T01:47:32;1.00;;;1.00;;
8568;SDS011;4322;51.104;-4.162;2023-01-31T01:50:03;0.70;;;0.70;;
8568;SDS011;4322;51.104;-4.162;2023-01-31T01:52:33;0.70;;;0.70;;
8568;SDS011;4322;51.104;-4.162;2023-01-31T01:55:03;0.70;;;0.70;;
8568;SDS011;4322;51.104;-4.162;2023-01-31T01:57:34;0.70;;;0.70;;
8568;SDS011;4322;51.104;-4.162;2023-01-31T02:00:06;0.90;;;0.90;;
8568;SDS011;4322;51.104;-4.162;2023-01-31T02:02:35;0.70;;;0.70;;
8568;SDS011;4322;51.104;-4.162;2023-01-31T02:05:05;0.80;;;0.80;;
8568;SDS011;4322;51.104;-4.162;2023-01-31T02:07:33;0.80;;;0.80;;
8568;SDS011;4322;51.104;-4.162;2023-01-31T02:10:02;0.87;;;0.87;;
8568;SDS011;4322;51.104;-4.162;2023-01-31T02:12:31;0.80;;;0.80;;
8568;SDS011;4322;51.104;-4.162;2023-01-31T02:14:59;0.83;;;0.83;;
8568;SDS011;4322;51.104;-4.162;2023-01-31T02:17:27;0.80;;;0.80;;
8568;SDS011;4322;51.104;-4.162;2023-01-31T02:20:08;0.70;;;0.70;;
8568;SDS011;4322;51.104;-4.162;2023-01-31T02:22:40;0.80;;;0.80;;
8568;SDS011;4322;51.104;-4.162;2023-01-31T02:30:47;0.70;;;0.70;;
8568;SDS011;4322;51.104;-4.162;2023-01-31T02:33:22;0.70;;;0.70;;
8568;SDS011;4322;51.104;-4.162;2023-01-31T02:35:55;0.70;;;0.70;;
8568;SDS011;4322;51.104;-4.162;2023-01-31T02:38:29;0.90;;;0.90;;
8568;SDS011;4322;51.104;-4.162;2023-01-31T02:41:00;0.80;;;0.80;;
8568;SDS011;4322;51.104;-4.162;2023-01-31T02:43:31;0.80;;;0.80;;
8568;SDS011;4322;51.104;-4.162;2023-01-31T02:46:22;0.70;;;0.70;;
8568;SDS011;4322;51.104;-4.162;2023-01-31T02:48:54;0.80;;;0.80;;
8568;SDS011;4322;51.104;-4.162;2023-01-31T02:51:24;0.80;;;0.80;;
8568;SDS011;4322;51.104;-4.162;2023-01-31T02:53:59;0.70;;;0.70;;
8568;SDS011;4322;51.104;-4.162;2023-01-31T02:56:29;0.70;;;0.70;;
8568;SDS011;4322;51.104;-4.162;2023-01-31T02:58:57;0.60;;;0.60;;
8568;SDS011;4322;51.104;-4.162;2023-01-31T03:01:26;0.50;;;0.50;;
8568;SDS011;4322;51.104;-4.162;2023-01-31T03:03:57;0.60;;;0.60;;
8568;SDS011;4322;51.104;-4.162;2023-01-31T03:09:21;0.60;;;0.60;;
8568;SDS011;4322;51.104;-4.162;2023-01-31T03:12:00;0.60;;;0.60;;
8568;SDS011;4322;51.104;-4.162;2023-01-31T03:14:32;0.60;;;0.60;;
8568;SDS011;4322;51.104;-4.162;2023-01-31T03:17:03;0.60;;;0.60;;
8568;SDS011;4322;51.104;-4.162;2023-01-31T03:20:07;0.60;;;0.60;;
8568;SDS011;4322;51.104;-4.162;2023-01-31T03:22:37;0.50;;;0.50;;
8568;SDS011;4322;51.104;-4.162;2023-01-31T03:25:07;0.60;;;0.60;;
8568;SDS011;4322;51.104;-4.162;2023-01-31T03:27:36;0.77;;;0.77;;
8568;SDS011;4322;51.104;-4.162;2023-01-31T03:30:05;0.70;;;0.70;;
8568;SDS011;4322;51.104;-4.162;2023-01-31T03:32:36;0.80;;;0.80;;
8568;SDS011;4322;51.104;-4.162;2023-01-31T03:35:07;0.60;;;0.60;;
8568;SDS011;4322;51.104;-4.162;2023-01-31T03:37:36;0.80;;;0.80;;
8568;SDS011;4322;51.104;-4.162;2023-01-31T03:40:04;0.80;;;0.80;;
8568;SDS011;4322;51.104;-4.162;2023-01-31T03:42:41;0.80;;;0.80;;
8568;SDS011;4322;51.104;-4.162;2023-01-31T03:45:11;0.70;;;0.70;;
8568;SDS011;4322;51.104;-4.162;2023-01-31T03:47:40;0.60;;;0.60;;
8568;SDS011;4322;51.104;-4.162;2023-01-31T03:50:11;0.70;;;0.70;;
8568;SDS011;4322;51.104;-4.162;2023-01-31T03:52:42;0.70;;;0.70;;
8568;SDS011;4322;51.104;-4.162;2023-01-31T03:55:13;0.70;;;0.70;;
8568;SDS011;4322;51.104;-4.162;2023-01-31T03:57:42;0.60;;;0.60;;
8568;SDS011;4322;51.104;-4.162;2023-01-31T04:00:12;0.60;;;0.60;;
8568;SDS011;4322;51.104;-4.162;2023-01-31T04:02:43;0.60;;;0.60;;
8568;SDS011;4322;51.104;-4.162;2023-01-31T04:05:13;0.60;;;0.60;;
8568;SDS011;4322;51.104;-4.162;2023-01-31T04:07:43;0.50;;;0.50;;
8568;SDS011;4322;51.104;-4.162;2023-01-31T04:10:12;0.60;;;0.60;;
8568;SDS011;4322;51.104;-4.162;2023-01-31T04:12:40;0.50;;;0.50;;
8568;SDS011;4322;51.104;-4.162;2023-01-31T04:15:08;0.70;;;0.70;;
8568;SDS011;4322;51.104;-4.162;2023-01-31T04:17:36;0.50;;;0.50;;
8568;SDS011;4322;51.104;-4.162;2023-01-31T04:20:05;0.50;;;0.50;;
8568;SDS011;4322;51.104;-4.162;2023-01-31T04:22:34;0.57;;;0.57;;
8568;SDS011;4322;51.104;-4.162;2023-01-31T04:25:02;0.60;;;0.60;;
8568;SDS011;4322;51.104;-4.162;2023-01-31T04:27:30;0.50;;;0.50;;
8568;SDS011;4322;51.104;-4.162;2023-01-31T04:29:58;0.50;;;0.50;;
8568;SDS011;4322;51.104;-4.162;2023-01-31T04:32:26;0.50;;;0.50;;
8568;SDS011;4322;51.104;-4.162;2023-01-31T04:34:54;0.50;;;0.50;;
8568;SDS011;4322;51.104;-4.162;2023-01-31T04:37:22;0.40;;;0.40;;
8568;SDS011;4322;51.104;-4.162;2023-01-31T04:39:51;0.50;;;0.50;;
8568;SDS011;4322;51.104;-4.162;2023-01-31T04:42:19;0.43;;;0.43;;
8568;SDS011;4322;51.104;-4.162;2023-01-31T04:44:46;0.47;;;0.47;;
8568;SDS011;4322;51.104;-4.162;2023-01-31T04:47:14;0.50;;;0.50;;
8568;SDS011;4322;51.104;-4.162;2023-01-31T04:49:42;0.40;;;0.40;;
8568;SDS011;4322;51.104;-4.162;2023-01-31T04:52:10;0.40;;;0.40;;
8568;SDS011;4322;51.104;-4.162;2023-01-31T04:54:38;0.43;;;0.43;;
8568;SDS011;4322;51.104;-4.162;2023-01-31T04:57:08;0.50;;;0.50;;
8568;SDS011;4322;51.104;-4.162;2023-01-31T04:59:36;0.40;;;0.40;;
8568;SDS011;4322;51.104;-4.162;2023-01-31T05:02:04;0.40;;;0.40;;
8568;SDS011;4322;51.104;-4.162;2023-01-31T05:04:31;0.50;;;0.50;;
8568;SDS011;4322;51.104;-4.162;2023-01-31T05:06:59;0.50;;;0.50;;
8568;SDS011;4322;51.104;-4.162;2023-01-31T05:09:27;0.47;;;0.47;;
8568;SDS011;4322;51.104;-4.162;2023-01-31T05:11:55;0.40;;;0.40;;
8568;SDS011;4322;51.104;-4.162;2023-01-31T05:14:24;0.43;;;0.43;;
8568;SDS011;4322;51.104;-4.162;2023-01-31T05:16:52;0.50;;;0.50;;
8568;SDS011;4322;51.104;-4.162;2023-01-31T05:19:20;0.50;;;0.50;;
8568;SDS011;4322;51.104;-4.162;2023-01-31T05:21:48;0.40;;;0.40;;
8568;SDS011;4322;51.104;-4.162;2023-01-31T05:24:25;0.40;;;0.40;;
8568;SDS011;4322;51.104;-4.162;2023-01-31T05:26:53;0.50;;;0.50;;
8568;SDS011;4322;51.104;-4.162;2023-01-31T05:29:25;0.50;;;0.50;;
8568;SDS011;4322;51.104;-4.162;2023-01-31T05:31:54;0.50;;;0.50;;
8568;SDS011;4322;51.104;-4.162;2023-01-31T05:34:23;0.40;;;0.40;;
8568;SDS011;4322;51.104;-4.162;2023-01-31T05:36:51;0.53;;;0.53;;
8568;SDS011;4322;51.104;-4.162;2023-01-31T05:39:19;0.60;;;0.60;;
8568;SDS011;4322;51.104;-4.162;2023-01-31T05:41:47;0.50;;;0.50;;
8568;SDS011;4322;51.104;-4.162;2023-01-31T05:44:15;0.40;;;0.40;;
8568;SDS011;4322;51.104;-4.162;2023-01-31T05:46:44;0.40;;;0.40;;
8568;SDS011;4322;51.104;-4.162;2023-01-31T05:49:12;0.40;;;0.40;;
8568;SDS011;4322;51.104;-4.162;2023-01-31T05:51:40;0.43;;;0.43;;
8568;SDS011;4322;51.104;-4.162;2023-01-31T05:54:09;0.50;;;0.50;;
8568;SDS011;4322;51.104;-4.162;2023-01-31T05:56:37;0.50;;;0.50;;
8568;SDS011;4322;51.104;-4.162;2023-01-31T05:59:05;0.50;;;0.50;;
8568;SDS011;4322;51.104;-4.162;2023-01-31T06:01:33;0.50;;;0.50;;
8568;SDS011;4322;51.104;-4.162;2023-01-31T06:04:02;0.40;;;0.40;;
8568;SDS011;4322;51.104;-4.162;2023-01-31T06:06:30;0.50;;;0.50;;
8568;SDS011;4322;51.104;-4.162;2023-01-31T06:08:58;0.50;;;0.50;;
8568;SDS011;4322;51.104;-4.162;2023-01-31T06:11:26;0.40;;;0.40;;
8568;SDS011;4322;51.104;-4.162;2023-01-31T06:13:54;0.40;;;0.40;;
8568;SDS011;4322;51.104;-4.162;2023-01-31T06:16:23;0.50;;;0.50;;
8568;SDS011;4322;51.104;-4.162;2023-01-31T06:18:51;0.40;;;0.40;;
8568;SDS011;4322;51.104;-4.162;2023-01-31T06:21:22;0.40;;;0.40;;
8568;SDS011;4322;51.104;-4.162;2023-01-31T06:23:50;0.50;;;0.50;;
8568;SDS011;4322;51.104;-4.162;2023-01-31T06:26:17;0.40;;;0.40;;
8568;SDS011;4322;51.104;-4.162;2023-01-31T06:28:45;0.40;;;0.40;;
8568;SDS011;4322;51.104;-4.162;2023-01-31T06:31:13;0.40;;;0.40;;
8568;SDS011;4322;51.104;-4.162;2023-01-31T06:33:41;0.43;;;0.43;;
8568;SDS011;4322;51.104;-4.162;2023-01-31T06:36:13;0.40;;;0.40;;
8568;SDS011;4322;51.104;-4.162;2023-01-31T06:38:48;0.50;;;0.50;;
8568;SDS011;4322;51.104;-4.162;2023-01-31T06:41:19;0.40;;;0.40;;
8568;SDS011;4322;51.104;-4.162;2023-01-31T06:43:47;0.50;;;0.50;;
8568;SDS011;4322;51.104;-4.162;2023-01-31T06:46:14;0.40;;;0.40;;
8568;SDS011;4322;51.104;-4.162;2023-01-31T06:48:42;0.40;;;0.40;;
8568;SDS011;4322;51.104;-4.162;2023-01-31T06:51:10;0.30;;;0.30;;
8568;SDS011;4322;51.104;-4.162;2023-01-31T06:53:38;0.40;;;0.40;;
8568;SDS011;4322;51.104;-4.162;2023-01-31T06:56:07;0.40;;;0.40;;
8568;SDS011;4322;51.104;-4.162;2023-01-31T06:58:35;0.40;;;0.40;;
8568;SDS011;4322;51.104;-4.162;2023-01-31T07:01:03;0.50;;;0.50;;
8568;SDS011;4322;51.104;-4.162;2023-01-31T07:03:31;0.40;;;0.40;;
8568;SDS011;4322;51.104;-4.162;2023-01-31T07:05:59;0.40;;;0.40;;
8568;SDS011;4322;51.104;-4.162;2023-01-31T07:08:27;0.30;;;0.30;;
8568;SDS011;4322;51.104;-4.162;2023-01-31T07:10:55;0.30;;;0.30;;
8568;SDS011;4322;51.104;-4.162;2023-01-31T07:13:24;0.40;;;0.40;;
8568;SDS011;4322;51.104;-4.162;2023-01-31T07:15:52;0.37;;;0.37;;
8568;SDS011;4322;51.104;-4.162;2023-01-31T07:18:20;0.33;;;0.33;;
8568;SDS011;4322;51.104;-4.162;2023-01-31T07:20:48;0.40;;;0.40;;
8568;SDS011;4322;51.104;-4.162;2023-01-31T07:23:16;0.50;;;0.50;;
8568;SDS011;4322;51.104;-4.162;2023-01-31T07:25:44;0.40;;;0.40;;
8568;SDS011;4322;51.104;-4.162;2023-01-31T07:28:12;0.37;;;0.37;;
8568;SDS011;4322;51.104;-4.162;2023-01-31T07:30:41;0.30;;;0.30;;
8568;SDS011;4322;51.104;-4.162;2023-01-31T07:33:09;0.40;;;0.40;;
8568;SDS011;4322;51.104;-4.162;2023-01-31T07:35:37;0.50;;;0.50;;
8568;SDS011;4322;51.104;-4.162;2023-01-31T07:38:04;0.40;;;0.40;;
8568;SDS011;4322;51.104;-4.162;2023-01-31T07:40:35;0.40;;;0.40;;
8568;SDS011;4322;51.104;-4.162;2023-01-31T07:43:02;0.40;;;0.40;;
8568;SDS011;4322;51.104;-4.162;2023-01-31T07:45:30;0.50;;;0.50;;
8568;SDS011;4322;51.104;-4.162;2023-01-31T07:48:00;0.40;;;0.40;;
8568;SDS011;4322;51.104;-4.162;2023-01-31T07:50:27;0.40;;;0.40;;
8568;SDS011;4322;51.104;-4.162;2023-01-31T07:52:56;0.40;;;0.40;;
8568;SDS011;4322;51.104;-4.162;2023-01-31T07:55:24;0.40;;;0.40;;
8568;SDS011;4322;51.104;-4.162;2023-01-31T07:57:51;0.50;;;0.50;;
8568;SDS011;4322;51.104;-4.162;2023-01-31T08:00:20;0.40;;;0.40;;
8568;SDS011;4322;51.104;-4.162;2023-01-31T08:03:18;0.40;;;0.40;;
8568;SDS011;4322;51.104;-4.162;2023-01-31T08:06:02;0.40;;;0.40;;
8568;SDS011;4322;51.104;-4.162;2023-01-31T08:08:30;0.30;;;0.30;;
8568;SDS011;4322;51.104;-4.162;2023-01-31T08:10:58;0.40;;;0.40;;
8568;SDS011;4322;51.104;-4.162;2023-01-31T08:13:25;0.37;;;0.37;;
8568;SDS011;4322;51.104;-4.162;2023-01-31T08:15:53;0.30;;;0.30;;
8568;SDS011;4322;51.104;-4.162;2023-01-31T08:18:22;0.40;;;0.40;;
8568;SDS011;4322;51.104;-4.162;2023-01-31T08:20:50;0.40;;;0.40;;
8568;SDS011;4322;51.104;-4.162;2023-01-31T08:23:18;0.40;;;0.40;;
8568;SDS011;4322;51.104;-4.162;2023-01-31T08:25:45;0.30;;;0.30;;
8568;SDS011;4322;51.104;-4.162;2023-01-31T08:28:13;0.40;;;0.40;;
8568;SDS011;4322;51.104;-4.162;2023-01-31T08:30:41;0.47;;;0.47;;
8568;SDS011;4322;51.104;-4.162;2023-01-31T08:33:22;0.40;;;0.40;;
8568;SDS011;4322;51.104;-4.162;2023-01-31T08:35:50;0.33;;;0.33;;
8568;SDS011;4322;51.104;-4.162;2023-01-31T08:38:18;0.40;;;0.40;;
8568;SDS011;4322;51.104;-4.162;2023-01-31T08:40:46;0.40;;;0.40;;
8568;SDS011;4322;51.104;-4.162;2023-01-31T08:43:15;0.50;;;0.50;;
8568;SDS011;4322;51.104;-4.162;2023-01-31T08:45:43;0.40;;;0.40;;
8568;SDS011;4322;51.104;-4.162;2023-01-31T08:48:11;0.40;;;0.40;;
8568;SDS011;4322;51.104;-4.162;2023-01-31T08:50:41;0.50;;;0.50;;
8568;SDS011;4322;51.104;-4.162;2023-01-31T08:53:09;0.40;;;0.40;;
8568;SDS011;4322;51.104;-4.162;2023-01-31T08:55:37;0.40;;;0.40;;
8568;SDS011;4322;51.104;-4.162;2023-01-31T08:58:04;0.47;;;0.47;;
8568;SDS011;4322;51.104;-4.162;2023-01-31T09:00:32;0.60;;;0.60;;
8568;SDS011;4322;51.104;-4.162;2023-01-31T09:03:01;0.40;;;0.40;;
8568;SDS011;4322;51.104;-4.162;2023-01-31T09:05:30;0.50;;;0.50;;
8568;SDS011;4322;51.104;-4.162;2023-01-31T09:08:00;0.50;;;0.50;;
8568;SDS011;4322;51.104;-4.162;2023-01-31T09:10:28;0.73;;;0.73;;
8568;SDS011;4322;51.104;-4.162;2023-01-31T09:12:57;0.70;;;0.70;;
8568;SDS011;4322;51.104;-4.162;2023-01-31T09:15:25;0.67;;;0.67;;
8568;SDS011;4322;51.104;-4.162;2023-01-31T09:17:53;0.60;;;0.60;;
8568;SDS011;4322;51.104;-4.162;2023-01-31T09:20:20;0.77;;;0.77;;
8568;SDS011;4322;51.104;-4.162;2023-01-31T09:22:48;0.60;;;0.60;;
8568;SDS011;4322;51.104;-4.162;2023-01-31T09:25:17;0.70;;;0.70;;
8568;SDS011;4322;51.104;-4.162;2023-01-31T09:28:02;0.80;;;0.80;;
8568;SDS011;4322;51.104;-4.162;2023-01-31T09:30:30;0.70;;;0.70;;
8568;SDS011;4322;51.104;-4.162;2023-01-31T09:32:58;0.60;;;0.60;;
8568;SDS011;4322;51.104;-4.162;2023-01-31T09:35:27;0.63;;;0.63;;
8568;SDS011;4322;51.104;-4.162;2023-01-31T09:37:54;0.63;;;0.63;;
8568;SDS011;4322;51.104;-4.162;2023-01-31T09:40:24;0.83;;;0.83;;
8568;SDS011;4322;51.104;-4.162;2023-01-31T09:42:53;0.70;;;0.70;;
8568;SDS011;4322;51.104;-4.162;2023-01-31T09:45:24;0.80;;;0.80;;
8568;SDS011;4322;51.104;-4.162;2023-01-31T09:47:53;0.70;;;0.70;;
8568;SDS011;4322;51.104;-4.162;2023-01-31T09:50:30;0.60;;;0.60;;
8568;SDS011;4322;51.104;-4.162;2023-01-31T09:53:00;0.60;;;0.60;;
8568;SDS011;4322;51.104;-4.162;2023-01-31T09:55:31;0.60;;;0.60;;
8568;SDS011;4322;51.104;-4.162;2023-01-31T09:58:03;0.70;;;0.70;;
8568;SDS011;4322;51.104;-4.162;2023-01-31T10:00:35;0.70;;;0.70;;
8568;SDS011;4322;51.104;-4.162;2023-01-31T10:03:16;0.60;;;0.60;;
8568;SDS011;4322;51.104;-4.162;2023-01-31T10:05:47;0.67;;;0.67;;
8568;SDS011;4322;51.104;-4.162;2023-01-31T10:08:17;0.60;;;0.60;;
8568;SDS011;4322;51.104;-4.162;2023-01-31T10:10:49;0.60;;;0.60;;
8568;SDS011;4322;51.104;-4.162;2023-01-31T10:13:20;0.40;;;0.40;;
8568;SDS011;4322;51.104;-4.162;2023-01-31T10:15:50;0.60;;;0.60;;
8568;SDS011;4322;51.104;-4.162;2023-01-31T10:18:22;0.50;;;0.50;;
8568;SDS011;4322;51.104;-4.162;2023-01-31T10:20:53;0.50;;;0.50;;
8568;SDS011;4322;51.104;-4.162;2023-01-31T10:23:22;0.60;;;0.60;;
8568;SDS011;4322;51.104;-4.162;2023-01-31T10:25:54;0.50;;;0.50;;
8568;SDS011;4322;51.104;-4.162;2023-01-31T10:28:24;0.40;;;0.40;;
8568;SDS011;4322;51.104;-4.162;2023-01-31T10:30:56;0.40;;;0.40;;
8568;SDS011;4322;51.104;-4.162;2023-01-31T10:33:27;0.30;;;0.30;;
8568;SDS011;4322;51.104;-4.162;2023-01-31T10:35:56;0.30;;;0.30;;
8568;SDS011;4322;51.104;-4.162;2023-01-31T10:38:27;0.30;;;0.30;;
8568;SDS011;4322;51.104;-4.162;2023-01-31T10:41:01;0.30;;;0.30;;
8568;SDS011;4322;51.104;-4.162;2023-01-31T10:43:32;0.30;;;0.30;;
8568;SDS011;4322;51.104;-4.162;2023-01-31T10:46:07;0.30;;;0.30;;
8568;SDS011;4322;51.104;-4.162;2023-01-31T10:48:36;0.30;;;0.30;;
8568;SDS011;4322;51.104;-4.162;2023-01-31T10:51:07;0.30;;;0.30;;
8568;SDS011;4322;51.104;-4.162;2023-01-31T10:53:41;0.20;;;0.20;;
8568;SDS011;4322;51.104;-4.162;2023-01-31T10:56:15;0.30;;;0.30;;
8568;SDS011;4322;51.104;-4.162;2023-01-31T10:58:45;0.30;;;0.30;;
8568;SDS011;4322;51.104;-4.162;2023-01-31T11:01:13;0.40;;;0.40;;
8568;SDS011;4322;51.104;-4.162;2023-01-31T11:03:44;0.40;;;0.40;;
8568;SDS011;4322;51.104;-4.162;2023-01-31T11:06:12;0.30;;;0.30;;
8568;SDS011;4322;51.104;-4.162;2023-01-31T11:08:41;0.30;;;0.30;;
8568;SDS011;4322;51.104;-4.162;2023-01-31T11:11:10;0.30;;;0.30;;
8568;SDS011;4322;51.104;-4.162;2023-01-31T11:13:40;0.30;;;0.30;;
8568;SDS011;4322;51.104;-4.162;2023-01-31T11:16:08;0.30;;;0.30;;
8568;SDS011;4322;51.104;-4.162;2023-01-31T11:18:40;0.40;;;0.40;;
8568;SDS011;4322;51.104;-4.162;2023-01-31T11:21:09;0.33;;;0.33;;
8568;SDS011;4322;51.104;-4.162;2023-01-31T11:23:45;0.30;;;0.30;;
8568;SDS011;4322;51.104;-4.162;2023-01-31T11:26:13;0.40;;;0.40;;
8568;SDS011;4322;51.104;-4.162;2023-01-31T11:28:52;0.40;;;0.40;;
8568;SDS011;4322;51.104;-4.162;2023-01-31T11:31:22;0.30;;;0.30;;
8568;SDS011;4322;51.104;-4.162;2023-01-31T11:33:55;0.40;;;0.40;;
8568;SDS011;4322;51.104;-4.162;2023-01-31T11:36:23;0.50;;;0.50;;
8568;SDS011;4322;51.104;-4.162;2023-01-31T11:38:52;0.40;;;0.40;;
8568;SDS011;4322;51.104;-4.162;2023-01-31T11:41:31;0.50;;;0.50;;
8568;SDS011;4322;51.104;-4.162;2023-01-31T11:44:14;0.50;;;0.50;;
8568;SDS011;4322;51.104;-4.162;2023-01-31T11:46:49;0.40;;;0.40;;
8568;SDS011;4322;51.104;-4.162;2023-01-31T11:49:19;0.50;;;0.50;;
8568;SDS011;4322;51.104;-4.162;2023-01-31T11:51:48;0.50;;;0.50;;
8568;SDS011;4322;51.104;-4.162;2023-01-31T11:54:17;0.40;;;0.40;;
8568;SDS011;4322;51.104;-4.162;2023-01-31T11:56:46;0.40;;;0.40;;
8568;SDS011;4322;51.104;-4.162;2023-01-31T11:59:17;0.47;;;0.47;;
8568;SDS011;4322;51.104;-4.162;2023-01-31T12:01:46;0.33;;;0.33;;
8568;SDS011;4322;51.104;-4.162;2023-01-31T12:04:16;0.40;;;0.40;;
8568;SDS011;4322;51.104;-4.162;2023-01-31T12:06:54;0.40;;;0.40;;
8568;SDS011;4322;51.104;-4.162;2023-01-31T12:09:23;0.50;;;0.50;;
8568;SDS011;4322;51.104;-4.162;2023-01-31T12:11:51;0.50;;;0.50;;
8568;SDS011;4322;51.104;-4.162;2023-01-31T12:14:21;0.50;;;0.50;;
8568;SDS011;4322;51.104;-4.162;2023-01-31T12:16:52;0.50;;;0.50;;
8568;SDS011;4322;51.104;-4.162;2023-01-31T12:19:25;0.50;;;0.50;;
8568;SDS011;4322;51.104;-4.162;2023-01-31T12:21:58;0.50;;;0.50;;
8568;SDS011;4322;51.104;-4.162;2023-01-31T12:24:32;0.50;;;0.50;;
8568;SDS011;4322;51.104;-4.162;2023-01-31T12:27:04;0.50;;;0.50;;
8568;SDS011;4322;51.104;-4.162;2023-01-31T12:29:43;0.50;;;0.50;;
8568;SDS011;4322;51.104;-4.162;2023-01-31T12:32:19;0.43;;;0.43;;
8568;SDS011;4322;51.104;-4.162;2023-01-31T12:34:58;0.50;;;0.50;;
8568;SDS011;4322;51.104;-4.162;2023-01-31T12:37:40;0.50;;;0.50;;
8568;SDS011;4322;51.104;-4.162;2023-01-31T12:42:58;0.60;;;0.60;;
8568;SDS011;4322;51.104;-4.162;2023-01-31T12:45:33;0.60;;;0.60;;
8568;SDS011;4322;51.104;-4.162;2023-01-31T12:48:18;0.60;;;0.60;;
8568;SDS011;4322;51.104;-4.162;2023-01-31T12:50:49;0.50;;;0.50;;
8568;SDS011;4322;51.104;-4.162;2023-01-31T12:56:20;0.50;;;0.50;;
8568;SDS011;4322;51.104;-4.162;2023-01-31T12:58:53;0.60;;;0.60;;
8568;SDS011;4322;51.104;-4.162;2023-01-31T13:01:43;0.60;;;0.60;;
8568;SDS011;4322;51.104;-4.162;2023-01-31T13:04:16;0.50;;;0.50;;
8568;SDS011;4322;51.104;-4.162;2023-01-31T13:06:51;0.60;;;0.60;;
8568;SDS011;4322;51.104;-4.162;2023-01-31T13:09:21;0.70;;;0.70;;
8568;SDS011;4322;51.104;-4.162;2023-01-31T13:11:51;0.50;;;0.50;;
8568;SDS011;4322;51.104;-4.162;2023-01-31T13:14:21;0.50;;;0.50;;
8568;SDS011;4322;51.104;-4.162;2023-01-31T13:16:51;0.60;;;0.60;;
8568;SDS011;4322;51.104;-4.162;2023-01-31T13:19:21;0.50;;;0.50;;
8568;SDS011;4322;51.104;-4.162;2023-01-31T13:21:50;0.50;;;0.50;;
8568;SDS011;4322;51.104;-4.162;2023-01-31T13:24:21;0.60;;;0.60;;
8568;SDS011;4322;51.104;-4.162;2023-01-31T13:26:51;0.60;;;0.60;;
8568;SDS011;4322;51.104;-4.162;2023-01-31T13:29:22;0.50;;;0.50;;
8568;SDS011;4322;51.104;-4.162;2023-01-31T13:31:55;0.60;;;0.60;;
8568;SDS011;4322;51.104;-4.162;2023-01-31T13:34:25;0.60;;;0.60;;
8568;SDS011;4322;51.104;-4.162;2023-01-31T13:36:56;0.60;;;0.60;;
8568;SDS011;4322;51.104;-4.162;2023-01-31T13:39:26;0.60;;;0.60;;
8568;SDS011;4322;51.104;-4.162;2023-01-31T13:41:54;0.53;;;0.53;;
8568;SDS011;4322;51.104;-4.162;2023-01-31T13:44:22;0.50;;;0.50;;
8568;SDS011;4322;51.104;-4.162;2023-01-31T13:46:50;0.60;;;0.60;;
8568;SDS011;4322;51.104;-4.162;2023-01-31T13:49:22;0.50;;;0.50;;
8568;SDS011;4322;51.104;-4.162;2023-01-31T13:51:51;0.63;;;0.63;;
8568;SDS011;4322;51.104;-4.162;2023-01-31T13:54:22;0.60;;;0.60;;
8568;SDS011;4322;51.104;-4.162;2023-01-31T13:56:52;0.50;;;0.50;;
8568;SDS011;4322;51.104;-4.162;2023-01-31T13:59:21;0.60;;;0.60;;
8568;SDS011;4322;51.104;-4.162;2023-01-31T14:01:49;0.70;;;0.70;;
8568;SDS011;4322;51.104;-4.162;2023-01-31T14:04:28;0.70;;;0.70;;
8568;SDS011;4322;51.104;-4.162;2023-01-31T14:09:42;0.70;;;0.70;;
8568;SDS011;4322;51.104;-4.162;2023-01-31T14:12:30;0.70;;;0.70;;
8568;SDS011;4322;51.104;-4.162;2023-01-31T14:14:58;0.70;;;0.70;;
8568;SDS011;4322;51.104;-4.162;2023-01-31T14:20:25;0.70;;;0.70;;
8568;SDS011;4322;51.104;-4.162;2023-01-31T14:25:39;0.60;;;0.60;;
8568;SDS011;4322;51.104;-4.162;2023-01-31T14:28:08;0.50;;;0.50;;
8568;SDS011;4322;51.104;-4.162;2023-01-31T14:30:40;0.53;;;0.53;;
8568;SDS011;4322;51.104;-4.162;2023-01-31T14:33:18;0.50;;;0.50;;
8568;SDS011;4322;51.104;-4.162;2023-01-31T14:35:56;0.70;;;0.70;;
8568;SDS011;4322;51.104;-4.162;2023-01-31T14:38:29;0.60;;;0.60;;
8568;SDS011;4322;51.104;-4.162;2023-01-31T14:41:02;0.60;;;0.60;;
8568;SDS011;4322;51.104;-4.162;2023-01-31T14:43:34;0.50;;;0.50;;
8568;SDS011;4322;51.104;-4.162;2023-01-31T14:46:08;0.63;;;0.63;;
8568;SDS011;4322;51.104;-4.162;2023-01-31T14:48:56;0.60;;;0.60;;
8568;SDS011;4322;51.104;-4.162;2023-01-31T14:51:34;0.60;;;0.60;;
8568;SDS011;4322;51.104;-4.162;2023-01-31T14:54:16;0.60;;;0.60;;
8568;SDS011;4322;51.104;-4.162;2023-01-31T14:56:54;0.70;;;0.70;;
8568;SDS011;4322;51.104;-4.162;2023-01-31T14:59:28;0.60;;;0.60;;
8568;SDS011;4322;51.104;-4.162;2023-01-31T15:01:58;0.70;;;0.70;;
8568;SDS011;4322;51.104;-4.162;2023-01-31T15:04:26;0.70;;;0.70;;
8568;SDS011;4322;51.104;-4.162;2023-01-31T15:06:56;0.70;;;0.70;;
8568;SDS011;4322;51.104;-4.162;2023-01-31T15:09:34;0.60;;;0.60;;
8568;SDS011;4322;51.104;-4.162;2023-01-31T15:12:02;0.70;;;0.70;;
8568;SDS011;4322;51.104;-4.162;2023-01-31T15:14:34;0.70;;;0.70;;
8568;SDS011;4322;51.104;-4.162;2023-01-31T15:17:05;0.60;;;0.60;;
8568;SDS011;4322;51.104;-4.162;2023-01-31T15:19:50;0.70;;;0.70;;
8568;SDS011;4322;51.104;-4.162;2023-01-31T15:22:21;0.63;;;0.63;;
8568;SDS011;4322;51.104;-4.162;2023-01-31T15:24:50;0.70;;;0.70;;
8568;SDS011;4322;51.104;-4.162;2023-01-31T15:27:21;0.70;;;0.70;;
8568;SDS011;4322;51.104;-4.162;2023-01-31T15:29:51;0.70;;;0.70;;
8568;SDS011;4322;51.104;-4.162;2023-01-31T15:32:22;0.70;;;0.70;;
8568;SDS011;4322;51.104;-4.162;2023-01-31T15:34:53;0.70;;;0.70;;
8568;SDS011;4322;51.104;-4.162;2023-01-31T15:37:24;0.70;;;0.70;;
8568;SDS011;4322;51.104;-4.162;2023-01-31T15:39:56;0.70;;;0.70;;
8568;SDS011;4322;51.104;-4.162;2023-01-31T15:42:26;0.70;;;0.70;;